Time;durP1;ratioP1;P1;durP2;ratioP2;P2;SDS_P1;SDS_P2;PMS_P1;PMS_P2;Temp;Humidity;BMP_temperature;BMP_pressure;BME280_temperature;BME280_humidity;BME280_pressure;Samples;Min_cycle;Max_cycle;Signal;HPM_P1;HPM_P2
2022/04/23 00:00:54;;;;;;;14.93;13.32;;;;;;;9.28;100.00;162989.91;5030623;28;20401;-57
2022/04/23 00:03:19;;;;;;;18.52;14.88;;;;;;;9.28;100.00;162989.91;5031675;28;20091;-58
2022/04/23 00:05:45;;;;;;;16.63;14.48;;;;;;;9.25;100.00;162981.84;5030559;28;20026;-57
2022/04/23 00:08:11;;;;;;;15.23;13.60;;;;;;;9.29;100.00;162994.00;5031951;28;20569;-58
2022/04/23 00:10:36;;;;;;;16.85;15.05;;;;;;;9.19;100.00;162968.38;5030004;28;20072;-57
2022/04/23 00:13:03;;;;;;;18.75;16.75;;;;;;;9.21;100.00;162972.41;5031549;28;20388;-57
2022/04/23 00:15:29;;;;;;;17.88;16.08;;;;;;;9.24;100.00;162980.47;5031678;28;20385;-58
2022/04/23 00:17:54;;;;;;;18.52;14.70;;;;;;;9.21;100.00;162973.75;5029857;28;20044;-59
2022/04/23 00:20:23;;;;;;;20.17;16.20;;;;;;;9.24;100.00;162979.16;5031163;28;20032;-59
2022/04/23 00:22:48;;;;;;;20.70;17.85;;;;;;;9.23;100.00;162976.44;5030352;28;20041;-58
2022/04/23 00:25:14;;;;;;;19.73;16.77;;;;;;;9.23;100.00;162976.44;5028694;28;20487;-58
2022/04/23 00:27:39;;;;;;;20.35;15.98;;;;;;;9.22;100.00;162975.13;5029745;28;20048;-59
2022/04/23 00:30:05;;;;;;;23.75;17.92;;;;;;;9.20;100.00;162971.03;5031562;28;20032;-58
2022/04/23 00:32:31;;;;;;;20.58;18.38;;;;;;;9.15;100.00;162957.56;5028659;28;20044;-59
2022/04/23 00:34:56;;;;;;;19.95;17.38;;;;;;;9.13;100.00;162952.16;5031472;28;20022;-59
2022/04/23 00:37:22;;;;;;;20.98;18.60;;;;;;;9.12;100.00;162948.13;5029913;28;20037;-58
2022/04/23 00:39:48;;;;;;;23.70;17.77;;;;;;;9.11;100.00;162946.81;5031441;28;20408;-58
2022/04/23 00:42:13;;;;;;;23.70;21.23;;;;;;;9.10;100.00;162944.09;5029577;28;20041;-58
2022/04/23 00:44:39;;;;;;;23.73;20.65;;;;;;;9.13;100.00;162952.16;5031232;28;20029;-58
2022/04/23 00:47:04;;;;;;;24.95;22.55;;;;;;;9.14;100.00;162954.88;5029441;28;20037;-58
2022/04/23 00:49:30;;;;;;;24.42;21.83;;;;;;;9.18;100.00;162964.31;5030754;28;20022;-58
2022/04/23 00:51:55;;;;;;;25.45;22.80;;;;;;;9.19;100.00;162968.38;5029506;28;20129;-58
2022/04/23 00:54:22;;;;;;;24.90;22.35;;;;;;;9.19;100.00;162968.38;5029564;28;20045;-58
2022/04/23 00:56:47;;;;;;;26.08;22.08;;;;;;;9.20;100.00;162971.03;5029468;28;20042;-59
2022/04/23 00:59:13;;;;;;;27.35;22.20;;;;;;;9.20;100.00;162971.03;5031298;28;20024;-58
2022/04/23 01:01:40;;;;;;;26.92;21.67;;;;;;;9.21;100.00;162972.41;5028606;28;20049;-57
2022/04/23 01:04:06;;;;;;;26.50;22.50;;;;;;;9.25;100.00;162981.84;5031021;28;20017;-58
2022/04/23 01:06:35;;;;;;;24.77;22.08;;;;;;;9.26;100.00;162984.56;5028885;28;20044;-58
2022/04/23 01:09:10;;;;;;;27.77;23.80;;;;;;;9.28;100.00;162989.91;5030750;28;20021;-58
2022/04/23 01:11:36;;;;;;;23.80;20.83;;;;;;;9.30;100.00;162995.34;5025687;28;20060;-58
2022/04/23 01:14:01;;;;;;;26.17;23.45;;;;;;;9.35;100.00;163008.81;5030514;28;20029;-58
2022/04/23 01:16:27;;;;;;;23.33;20.92;;;;;;;9.35;100.00;163008.81;5028138;28;20056;-58
2022/04/23 01:18:53;;;;;;;24.63;21.95;;;;;;;9.39;100.00;163019.63;5030311;28;20034;-58
2022/04/23 01:21:18;;;;;;;33.40;25.50;;;;;;;9.45;100.00;163035.81;5029009;28;20452;-57
2022/04/23 01:23:46;;;;;;;25.83;23.17;;;;;;;9.48;100.00;163043.91;5030237;28;20025;-58
2022/04/23 01:26:14;;;;;;;27.60;24.80;;;;;;;9.55;100.00;163060.09;5029042;28;20440;-58
2022/04/23 01:28:39;;;;;;;28.30;25.30;;;;;;;9.59;100.00;163070.84;5030472;28;20032;-58
2022/04/23 01:31:06;;;;;;;29.13;24.33;;;;;;;9.63;100.00;163081.69;5028843;28;20041;-58
2022/04/23 01:33:35;;;;;;;32.83;25.50;;;;;;;9.63;100.00;163081.69;5030173;28;20024;-58
2022/04/23 01:36:00;;;;;;;28.52;25.33;;;;;;;9.63;100.00;163083.00;5029082;28;20076;-58
2022/04/23 01:38:25;;;;;;;28.15;24.98;;;;;;;9.62;100.00;163080.31;5030002;28;20435;-58
2022/04/23 01:40:51;;;;;;;30.75;25.38;;;;;;;9.58;100.00;163068.16;5028737;28;20046;-58
2022/04/23 01:43:16;;;;;;;30.55;25.30;;;;;;;9.60;100.00;163073.56;5029736;28;20033;-58
2022/04/23 01:45:41;;;;;;;29.30;26.25;;;;;;;9.61;100.00;163076.28;5028624;28;20052;-58
2022/04/23 01:48:07;;;;;;;27.58;24.65;;;;;;;9.63;100.00;163081.69;5030651;28;20032;-58
2022/04/23 01:50:34;;;;;;;29.52;26.35;;;;;;;9.61;100.00;163077.59;5027780;28;20029;-57
2022/04/23 01:52:59;;;;;;;33.25;27.95;;;;;;;9.64;100.00;163084.38;5030013;28;20491;-58
2022/04/23 01:55:24;;;;;;;28.27;24.50;;;;;;;9.63;100.00;163081.69;5029750;28;20029;-58
2022/04/23 01:57:50;;;;;;;31.13;26.65;;;;;;;9.63;100.00;163081.69;5028268;28;20179;-58
2022/04/23 02:00:15;;;;;;;28.50;25.13;;;;;;;9.56;100.00;163064.13;5029993;28;20050;-58
2022/04/23 02:02:44;;;;;;;33.90;24.38;;;;;;;9.49;100.00;163046.56;5028370;28;20047;-58
2022/04/23 02:05:11;;;;;;;26.65;23.88;;;;;;;9.47;100.00;163039.81;5029743;28;20033;-58
2022/04/23 02:07:37;;;;;;;33.70;26.30;;;;;;;9.40;100.00;163022.31;5028035;28;20075;-58
2022/04/23 02:10:07;;;;;;;28.55;25.15;;;;;;;9.35;100.00;163008.81;5029716;28;20029;-58
2022/04/23 02:12:32;;;;;;;29.42;25.20;;;;;;;9.25;100.00;162981.84;5027186;28;20049;-58
2022/04/23 02:14:57;;;;;;;29.63;25.45;;;;;;;9.17;100.00;162962.97;5029646;28;20018;-57
2022/04/23 02:17:34;;;;;;;27.23;24.42;;;;;;;9.14;100.00;162953.53;5028316;28;20037;-58
2022/04/23 02:20:08;;;;;;;32.10;28.02;;;;;;;9.10;100.00;162944.09;5027397;28;20017;-57
2022/04/23 02:22:33;;;;;;;30.15;26.90;;;;;;;9.08;100.00;162938.69;5028320;28;20049;-58
2022/04/23 02:24:59;;;;;;;31.02;25.90;;;;;;;9.04;100.00;162927.94;5029866;28;20029;-58
2022/04/23 02:27:24;;;;;;;30.02;25.65;;;;;;;9.00;100.00;162917.13;5027881;28;20045;-58
2022/04/23 02:29:53;;;;;;;31.08;27.27;;;;;;;8.97;100.00;162909.06;5029953;28;20045;-58
2022/04/23 02:32:19;;;;;;;33.70;27.70;;;;;;;8.88;100.00;162886.09;5027325;28;20041;-58
2022/04/23 02:34:45;;;;;;;30.45;27.33;;;;;;;8.75;100.00;162852.38;5029382;28;20020;-58
2022/04/23 02:37:11;;;;;;;28.60;25.50;;;;;;;8.74;100.00;162849.72;5028285;28;20045;-58
2022/04/23 02:39:37;;;;;;;29.15;26.05;;;;;;;8.75;100.00;162852.38;5029464;28;20053;-58
2022/04/23 02:42:03;;;;;;;35.30;28.30;;;;;;;8.72;100.00;162844.31;5028032;28;20132;-58
2022/04/23 02:44:29;;;;;;;30.83;27.13;;;;;;;8.65;100.00;162826.78;5029335;28;20125;-58
2022/04/23 02:46:54;;;;;;;30.55;27.42;;;;;;;8.63;100.00;162820.03;5028281;28;20053;-58
2022/04/23 02:49:20;;;;;;;28.58;25.48;;;;;;;8.57;100.00;162806.56;5028912;28;20359;-58
2022/04/23 02:51:45;;;;;;;32.30;28.75;;;;;;;8.53;100.00;162795.75;5028771;28;20045;-58
2022/04/23 02:54:12;;;;;;;30.52;26.50;;;;;;;8.52;100.00;162793.09;5029797;28;20087;-58
2022/04/23 02:56:38;;;;;;;31.20;28.00;;;;;;;8.43;100.00;162768.78;5027800;28;20446;-58
2022/04/23 02:59:04;;;;;;;31.42;28.10;;;;;;;8.49;100.00;162785.00;5030279;28;20067;-58
2022/04/23 03:01:30;;;;;;;29.83;26.73;;;;;;;8.44;100.00;162771.50;5027999;28;20052;-58
2022/04/23 03:03:56;;;;;;;33.42;28.95;;;;;;;8.46;100.00;162776.84;5029370;28;20099;-58
2022/04/23 03:06:28;;;;;;;30.55;27.38;;;;;;;8.44;100.00;162770.13;5028580;28;20112;-58
2022/04/23 03:08:54;;;;;;;32.45;27.85;;;;;;;8.43;100.00;162768.78;5030033;28;20033;-58
2022/04/23 03:11:20;;;;;;;31.33;27.92;;;;;;;8.40;100.00;162760.69;5027567;28;20417;-58
2022/04/23 03:13:45;;;;;;;32.20;28.75;;;;;;;8.42;100.00;162766.09;5029910;28;20426;-58
2022/04/23 03:16:10;;;;;;;31.88;28.42;;;;;;;8.39;100.00;162757.97;5028126;28;20456;-58
2022/04/23 03:18:36;;;;;;;34.90;28.95;;;;;;;8.36;100.00;162749.91;5030388;28;20033;-57
2022/04/23 03:21:02;;;;;;;34.05;29.13;;;;;;;8.30;100.00;162733.75;5032088;28;20037;-57
2022/04/23 03:23:27;;;;;;;37.78;29.00;;;;;;;8.25;100.00;162722.94;5033800;28;20025;-57
2022/04/23 03:25:53;;;;;;;33.30;29.67;;;;;;;8.22;100.00;162713.50;5032144;28;20060;-57
2022/04/23 03:28:19;;;;;;;35.05;31.50;;;;;;;8.20;100.00;162709.47;5033424;28;20057;-57
2022/04/23 03:30:45;;;;;;;35.20;30.02;;;;;;;8.19;100.00;162706.78;5032689;28;20095;-57
2022/04/23 03:33:10;;;;;;;38.33;29.33;;;;;;;8.14;100.00;162693.31;5032660;28;20021;-57
2022/04/23 03:35:36;;;;;;;32.83;29.15;;;;;;;8.15;100.00;162696.00;5031678;28;20444;-56
2022/04/23 03:38:03;;;;;;;31.85;28.52;;;;;;;8.08;100.00;162677.09;5033251;28;20056;-58
2022/04/23 03:40:29;;;;;;;34.42;30.85;;;;;;;8.14;100.00;162693.31;5032585;28;20033;-57
2022/04/23 03:42:54;;;;;;;32.50;28.38;;;;;;;8.15;100.00;162696.00;5031273;28;20065;-58
2022/04/23 03:45:20;;;;;;;33.78;29.88;;;;;;;8.16;100.00;162698.66;5032918;28;20034;-57
2022/04/23 03:47:47;;;;;;;34.05;30.40;;;;;;;8.20;100.00;162709.47;5031309;28;20046;-57
2022/04/23 03:50:13;;;;;;;34.10;29.95;;;;;;;8.20;100.00;162709.47;5032913;28;20029;-57
2022/04/23 03:52:39;;;;;;;34.03;27.23;;;;;;;8.22;100.00;162714.88;5031005;28;20806;-57
2022/04/23 03:55:05;;;;;;;35.25;29.30;;;;;;;8.18;100.00;162704.06;5032344;28;20030;-57
2022/04/23 03:57:31;;;;;;;36.90;31.05;;;;;;;8.19;100.00;162705.44;5031113;28;20041;-58
2022/04/23 03:59:56;;;;;;;30.98;27.58;;;;;;;8.16;100.00;162698.66;5032709;28;20045;-58
2022/04/23 04:02:21;;;;;;;30.33;27.08;;;;;;;8.19;100.00;162705.44;5030586;28;20112;-58
2022/04/23 04:04:47;;;;;;;31.67;27.23;;;;;;;8.15;100.00;162696.00;5032438;28;20083;-58
2022/04/23 04:07:21;;;;;;;31.92;28.30;;;;;;;8.15;100.00;162696.00;5031236;28;20046;-58
2022/04/23 04:09:46;;;;;;;27.83;24.83;;;;;;;8.12;100.00;162686.59;5031612;28;20030;-58
2022/04/23 04:12:12;;;;;;;29.80;26.70;;;;;;;7.94;100.00;162642.06;5030695;28;20428;-58
2022/04/23 04:14:37;;;;;;;33.90;23.58;;;;;;;8.10;100.00;162682.50;5031940;28;20181;-58
2022/04/23 04:17:07;;;;;;;27.45;24.75;;;;;;;8.05;100.00;162669.03;5029683;28;20040;-56
2022/04/23 04:19:34;;;;;;;29.60;24.88;;;;;;;8.06;100.00;162673.06;5031679;28;20025;-57
2022/04/23 04:22:02;;;;;;;27.80;24.10;;;;;;;8.05;100.00;162669.03;5030224;28;20046;-57
2022/04/23 04:24:28;;;;;;;38.97;25.80;;;;;;;8.05;100.00;162669.03;5030784;28;20116;-56
2022/04/23 04:26:53;;;;;;;27.88;22.85;;;;;;;8.05;100.00;162669.03;5030841;28;20068;-56
2022/04/23 04:29:19;;;;;;;27.58;23.55;;;;;;;8.03;100.00;162663.63;5031276;28;20033;-56
2022/04/23 04:31:49;;;;;;;27.02;23.85;;;;;;;8.00;100.00;162655.59;5029829;28;20053;-55
2022/04/23 04:34:18;;;;;;;27.60;24.42;;;;;;;7.97;100.00;162647.47;5031755;28;20036;-53
2022/04/23 04:36:45;;;;;;;26.85;24.15;;;;;;;7.93;100.00;162639.38;5029919;28;20049;-55
2022/04/23 04:39:11;;;;;;;27.90;24.83;;;;;;;7.93;100.00;162639.38;5031119;28;20473;-54
2022/04/23 04:41:37;;;;;;;26.55;23.90;;;;;;;7.97;100.00;162647.47;5028721;28;20062;-54
2022/04/23 04:44:03;;;;;;;27.10;22.48;;;;;;;7.95;100.00;162643.44;5031471;28;20033;-53
2022/04/23 04:46:29;;;;;;;28.33;25.63;;;;;;;7.98;100.00;162650.19;5028024;28;20517;-53
2022/04/23 04:48:54;;;;;;;25.85;22.58;;;;;;;7.97;100.00;162647.47;5028649;28;20072;-54
2022/04/23 04:51:19;;;;;;;24.60;21.52;;;;;;;7.94;100.00;162642.06;5019479;28;20496;-54
2022/04/23 04:53:45;;;;;;;26.10;23.55;;;;;;;7.94;100.00;162642.06;5030389;28;20390;-54
2022/04/23 04:56:10;;;;;;;23.80;21.55;;;;;;;7.93;100.00;162638.03;5029178;28;20049;-53
2022/04/23 04:58:36;;;;;;;23.75;21.30;;;;;;;7.96;100.00;162644.78;5029263;28;20064;-55
2022/04/23 05:01:02;;;;;;;22.70;20.48;;;;;;;7.93;100.00;162638.03;5028706;28;20091;-54
2022/04/23 05:03:28;;;;;;;25.35;22.52;;;;;;;7.93;100.00;162638.03;5029999;28;20492;-54
2022/04/23 05:05:53;;;;;;;23.15;20.75;;;;;;;7.96;100.00;162644.78;5027365;28;20041;-54
2022/04/23 05:08:18;;;;;;;20.70;18.60;;;;;;;7.98;100.00;162651.50;5029911;28;20029;-54
2022/04/23 05:10:44;;;;;;;24.85;21.15;;;;;;;8.00;100.00;162655.59;5028594;28;20029;-54
2022/04/23 05:13:09;;;;;;;25.20;20.88;;;;;;;8.05;100.00;162669.03;5029390;28;20071;-54
2022/04/23 05:15:35;;;;;;;20.95;18.75;;;;;;;8.12;100.00;162687.91;5028203;28;20022;-54
2022/04/23 05:18:00;;;;;;;22.45;20.35;;;;;;;8.20;100.00;162708.09;5029814;28;20021;-52
2022/04/23 05:20:26;;;;;;;22.58;20.40;;;;;;;8.30;100.00;162733.75;5028613;28;20017;-54
2022/04/23 05:22:51;;;;;;;22.17;17.90;;;;;;;8.39;100.00;162757.97;5028396;28;20052;-53
2022/04/23 05:25:17;;;;;;;20.55;18.38;;;;;;;8.47;100.00;162779.59;5029703;28;20026;-54
2022/04/23 05:27:42;;;;;;;18.60;16.63;;;;;;;8.52;100.00;162791.72;5026284;28;20033;-52
2022/04/23 05:30:08;;;;;;;22.35;20.00;;;;;;;8.60;100.00;162811.97;5029893;28;20025;-54
2022/04/23 05:32:33;;;;;;;22.70;18.27;;;;;;;8.67;100.00;162830.84;5027942;28;20087;-54
2022/04/23 05:34:58;;;;;;;18.60;16.52;;;;;;;8.75;100.00;162852.38;5029101;28;20033;-54
2022/04/23 05:37:23;;;;;;;19.33;17.30;;;;;;;8.82;100.00;162871.31;5028002;28;20033;-54
2022/04/23 05:39:49;;;;;;;18.25;16.30;;;;;;;8.84;100.00;162876.66;5029560;28;20686;-54
2022/04/23 05:42:14;;;;;;;17.70;15.88;;;;;;;8.90;100.00;162891.50;5026126;28;20034;-55
2022/04/23 05:44:40;;;;;;;18.25;15.98;;;;;;;9.00;100.00;162917.13;5029514;28;20029;-55
2022/04/23 05:47:05;;;;;;;19.35;17.45;;;;;;;9.04;100.00;162927.94;5027690;28;20041;-53
2022/04/23 05:49:30;;;;;;;18.27;16.20;;;;;;;9.07;100.00;162936.00;5028022;28;20472;-54
2022/04/23 05:51:56;;;;;;;19.17;17.38;;;;;;;9.12;100.00;162949.47;5028056;28;20404;-54
2022/04/23 05:54:21;;;;;;;16.88;15.23;;;;;;;9.27;100.00;162987.28;5029006;28;20026;-54
2022/04/23 05:56:46;;;;;;;19.50;16.25;;;;;;;9.36;100.00;163011.50;5027391;28;20111;-54
2022/04/23 05:59:12;;;;;;;17.80;15.90;;;;;;;9.42;100.00;163027.69;5029639;28;20021;-55
2022/04/23 06:01:37;;;;;;;20.38;16.40;;;;;;;9.49;100.00;163046.56;5027076;28;20041;-54
2022/04/23 06:04:03;;;;;;;17.15;15.32;;;;;;;9.55;100.00;163061.41;5028366;28;20469;-55
2022/04/23 06:06:28;;;;;;;17.88;16.02;;;;;;;9.61;100.00;163077.59;5027246;28;20045;-54
2022/04/23 06:08:53;;;;;;;19.05;16.88;;;;;;;9.74;100.00;163111.34;5029209;28;20033;-54
2022/04/23 06:11:19;;;;;;;18.85;16.88;;;;;;;9.77;100.00;163119.44;5026675;28;20041;-54
2022/04/23 06:13:44;;;;;;;17.10;15.32;;;;;;;9.86;100.00;163141.03;5028852;28;20032;-54
2022/04/23 06:16:09;;;;;;;17.25;15.43;;;;;;;10.02;100.00;163184.19;5027700;28;20079;-55
2022/04/23 06:18:35;;;;;;;17.65;15.52;;;;;;;10.03;100.00;163186.88;5027684;28;20018;-54
2022/04/23 06:21:00;;;;;;;18.25;16.17;;;;;;;10.20;100.00;163230.06;5028003;28;20045;-54
2022/04/23 06:23:25;;;;;;;15.27;13.77;;;;;;;10.20;100.00;163231.41;5029047;28;20033;-54
2022/04/23 06:25:52;;;;;;;16.77;13.63;;;;;;;10.23;100.00;163238.19;5027069;28;20412;-54
2022/04/23 06:28:17;;;;;;;17.20;14.30;;;;;;;10.37;100.00;163274.66;5028804;28;20040;-54
2022/04/23 06:30:43;;;;;;;18.55;16.63;;;;;;;10.48;100.00;163305.69;5026743;28;20021;-54
2022/04/23 06:33:08;;;;;;;14.27;12.85;;;;;;;10.59;100.00;163332.72;5028623;28;20147;-53
2022/04/23 06:35:34;;;;;;;18.08;15.20;;;;;;;10.78;100.00;163384.00;5027668;28;20022;-53
2022/04/23 06:38:01;;;;;;;16.30;14.60;;;;;;;10.98;100.00;163433.94;5028920;28;20013;-53
2022/04/23 06:40:26;;;;;;;18.05;16.17;;;;;;;10.99;100.00;163437.97;5028968;28;20571;-54
2022/04/23 06:42:51;;;;;;;16.73;14.02;;;;;;;11.06;100.00;163456.88;5027775;28;20053;-54
2022/04/23 06:45:17;;;;;;;13.63;12.27;;;;;;;11.15;100.00;163479.88;5028909;28;20017;-53
2022/04/23 06:47:42;;;;;;;15.30;13.75;;;;;;;11.46;100.00;163559.50;5026010;28;20057;-54
2022/04/23 06:50:08;;;;;;;16.35;14.60;;;;;;;11.61;100.00;163600.03;5029348;28;20037;-54
2022/04/23 06:52:34;;;;;;;16.27;13.38;;;;;;;11.73;100.00;163632.44;5028930;28;20052;-54
2022/04/23 06:54:59;;;;;;;16.02;13.32;;;;;;;11.79;100.00;163645.97;5032747;28;20097;-54
2022/04/23 06:57:25;;;;;;;25.25;15.85;;;;;;;11.86;100.00;163664.91;5031318;28;20041;-53
2022/04/23 06:59:51;;;;;;;13.45;11.75;;;;;;;11.78;100.00;163643.28;5031907;28;20129;-52
2022/04/23 07:02:18;;;;;;;16.00;14.32;;;;;;;12.18;100.00;163750.03;5032020;28;20634;-53
2022/04/23 07:04:43;;;;;;;14.45;12.95;;;;;;;12.73;100.00;163891.94;5032215;28;20424;-53
2022/04/23 07:07:10;;;;;;;17.15;13.32;;;;;;;13.73;100.00;164155.63;5030920;28;20042;-53
2022/04/23 07:09:35;;;;;;;15.82;12.15;;;;;;;14.72;100.00;164414.03;5032680;28;20033;-54
2022/04/23 07:12:01;;;;;;;13.38;12.05;;;;;;;15.66;100.00;164660.41;5031601;28;20176;-54
2022/04/23 07:14:27;;;;;;;20.40;13.10;;;;;;;16.05;100.00;164762.00;5032548;28;20036;-54
2022/04/23 07:16:52;;;;;;;14.80;12.30;;;;;;;16.42;100.00;164860.84;5031106;28;20493;-54
2022/04/23 07:19:17;;;;;;;17.08;13.18;;;;;;;17.33;100.00;165098.03;5032377;28;20037;-55
2022/04/23 07:21:43;;;;;;;14.05;11.75;;;;;;;17.13;100.00;165047.88;5031139;28;20037;-53
2022/04/23 07:24:10;;;;;;;18.80;13.93;;;;;;;17.33;100.00;165099.34;5033230;28;20033;-55
2022/04/23 07:26:36;;;;;;;12.52;11.25;;;;;;;17.50;100.00;165142.72;5031281;28;20116;-55
2022/04/23 07:29:07;;;;;;;12.15;10.98;;;;;;;17.97;100.00;165267.50;5032746;28;20040;-55
2022/04/23 07:31:33;;;;;;;12.07;10.90;;;;;;;18.29;100.00;165350.19;5031280;28;20029;-55
2022/04/23 07:39:34;;;;;;;12.95;11.57;;;;;;;18.42;100.00;165384.09;5023730;28;20080;-55
2022/04/23 07:41:59;;;;;;;12.40;11.25;;;;;;;17.69;100.00;165194.22;5030805;28;20487;-55
2022/04/23 07:44:25;;;;;;;14.75;12.80;;;;;;;17.27;100.00;165083.09;5032102;28;20091;-55
2022/04/23 07:46:51;;;;;;;12.88;11.57;;;;;;;17.47;100.00;165134.59;5030459;28;20045;-55
2022/04/23 07:49:17;;;;;;;15.32;12.57;;;;;;;16.73;100.00;164942.13;5032648;28;20029;-54
2022/04/23 07:51:43;;;;;;;12.88;11.60;;;;;;;16.70;100.00;164934.03;5029824;28;20037;-55
2022/04/23 07:54:09;;;;;;;15.50;12.35;;;;;;;16.75;100.00;164947.56;5032379;28;20029;-55
2022/04/23 07:56:35;;;;;;;15.35;13.02;;;;;;;16.53;100.00;164889.28;5030657;28;20045;-54
2022/04/23 07:59:00;;;;;;;13.52;12.10;;;;;;;16.79;100.00;164957.03;5032038;28;20100;-54
2022/04/23 08:01:25;;;;;;;20.45;13.52;;;;;;;16.64;100.00;164917.78;5030385;28;20678;-55
2022/04/23 08:03:51;;;;;;;19.75;14.23;;;;;;;16.99;100.00;165009.94;5031802;28;20029;-54
2022/04/23 08:06:16;;;;;;;21.83;14.02;;;;;;;17.15;100.00;165050.59;5030363;28;20037;-57
2022/04/23 08:08:43;;;;;;;16.23;14.23;;;;;;;16.57;100.00;164900.16;5031829;28;20018;-53
2022/04/23 08:11:08;;;;;;;14.38;12.73;;;;;;;16.39;100.00;164851.38;5030995;28;20060;-54
2022/04/23 08:13:34;;;;;;;17.55;13.70;;;;;;;16.11;100.00;164778.25;5031080;28;20018;-55
2022/04/23 08:15:59;;;;;;;16.25;14.65;;;;;;;15.91;100.00;164725.41;5030759;28;20421;-54
2022/04/23 08:18:26;;;;;;;16.10;14.20;;;;;;;16.22;100.00;164806.69;5032070;28;20031;-54
2022/04/23 08:20:52;;;;;;;15.73;13.52;;;;;;;16.27;100.00;164820.25;5030490;28;20033;-54
2022/04/23 08:23:19;;;;;;;24.58;16.00;;;;;;;15.88;100.00;164717.31;5031706;28;20037;-54
2022/04/23 08:25:45;;;;;;;16.15;14.40;;;;;;;16.71;100.00;164936.75;5030744;28;20044;-53
2022/04/23 08:30:54;;;;;;;17.45;13.40;;;;;;;17.11;100.00;165041.13;5030566;28;20049;-55
2022/04/23 08:33:20;;;;;;;16.77;14.02;;;;;;;17.67;100.00;165187.44;5031455;28;20030;-55
2022/04/23 08:35:45;;;;;;;17.35;14.02;;;;;;;17.63;100.00;165176.63;5030150;28;20041;-53
2022/04/23 08:38:10;;;;;;;19.38;16.73;;;;;;;17.51;100.00;165145.44;5031835;28;20028;-54
2022/04/23 08:40:44;;;;;;;19.25;15.38;;;;;;;17.68;100.00;165191.56;5030165;28;20385;-54
2022/04/23 08:43:10;;;;;;;17.70;15.20;;;;;;;17.57;100.00;165161.72;5031058;28;20037;-54
2022/04/23 08:45:37;;;;;;;18.60;16.05;;;;;;;17.61;100.00;165172.53;5029792;28;20022;-55
2022/04/23 08:48:07;;;;;;;21.52;19.15;;;;;;;18.09;100.00;165298.69;5031500;28;20507;-54
2022/04/23 08:50:36;;;;;;;16.05;13.88;;;;;;;18.52;100.00;165412.59;5030851;28;20496;-53
2022/04/23 08:53:06;;;;;;;18.30;16.02;;;;;;;18.22;100.00;165333.94;5029832;28;20053;-55
2022/04/23 08:55:31;;;;;;;22.63;17.48;;;;;;;18.20;100.00;165328.50;5031212;28;20083;-54
2022/04/23 08:57:57;;;;;;;22.73;16.50;;;;;;;17.96;100.00;165263.41;5028478;28;20516;-54
2022/04/23 09:00:22;;;;;;;19.23;16.88;;;;;;;17.96;100.00;165263.41;5030294;28;20080;-55
2022/04/23 09:02:48;;;;;;;20.08;17.77;;;;;;;17.82;100.00;165226.78;5029707;28;20405;-55
2022/04/23 09:05:13;;;;;;;20.35;17.08;;;;;;;17.71;100.00;165198.31;5030251;28;20044;-55
2022/04/23 09:07:39;;;;;;;19.17;17.20;;;;;;;17.48;100.00;165138.69;5028459;28;20037;-55
2022/04/23 09:10:06;;;;;;;21.92;16.23;;;;;;;18.11;100.00;165304.06;5031022;28;20138;-54
2022/04/23 09:12:31;;;;;;;20.88;18.27;;;;;;;18.06;100.00;165291.88;5025572;28;20463;-55
2022/04/23 09:23:41;;;;;;;22.30;19.90;;;;;;;17.75;100.00;165210.53;5030733;28;20044;-55
2022/04/23 09:26:22;;;;;;;21.85;19.23;;;;;;;17.79;100.00;165218.63;5029539;28;20034;-56
2022/04/23 09:28:49;;;;;;;21.80;19.42;;;;;;;17.96;100.00;165264.78;5030740;28;20113;-55
2022/04/23 09:31:18;;;;;;;21.35;19.10;;;;;;;18.12;100.00;165305.47;5029334;28;20396;-53
2022/04/23 09:33:49;;;;;;;;;;;;;;;18.27;100.00;165346.16;5030853;28;20452;-53
2022/04/23 09:36:14;;;;;;;25.90;19.85;;;;;;;18.13;100.00;165309.53;5008992;28;20428;-53
2022/04/23 09:38:40;;;;;;;24.92;18.50;;;;;;;17.91;100.00;165251.16;5010776;28;20068;-54
2022/04/23 09:41:19;;;;;;;21.40;18.75;;;;;;;18.14;100.00;165310.84;5009579;28;20042;-55
2022/04/23 09:44:04;;;;;;;24.70;18.27;;;;;;;18.47;100.00;165397.66;5027025;28;20029;-52
2022/04/23 09:46:42;;;;;;;22.20;18.73;;;;;;;18.73;100.00;165465.47;5028739;28;20622;-53
2022/04/23 09:49:07;;;;;;;24.90;20.17;;;;;;;18.45;100.00;165393.59;5030429;28;20036;-52
2022/04/23 09:51:34;;;;;;;23.23;20.35;;;;;;;18.48;100.00;165400.38;5019488;28;20034;-53
2022/04/23 09:54:02;;;;;;;22.52;20.08;;;;;;;18.56;100.00;165422.06;5010621;28;20038;-56
2022/04/23 09:56:28;;;;;;;22.25;18.63;;;;;;;18.45;100.00;165392.22;5009156;28;20045;-54
2022/04/23 09:58:54;;;;;;;23.30;20.02;;;;;;;18.51;100.00;165409.88;5010097;28;20374;-55
2022/04/23 10:01:21;;;;;;;23.23;19.58;;;;;;;18.58;100.00;165426.13;5008568;28;20042;-55
2022/04/23 10:03:50;;;;;;;21.95;19.65;;;;;;;18.67;100.00;165450.56;5009489;28;20030;-55
2022/04/23 10:06:18;;;;;;;28.15;20.83;;;;;;;18.45;100.00;165392.22;5008357;28;20040;-55
2022/04/23 10:08:51;;;;;;;23.23;19.92;;;;;;;18.49;100.00;165404.44;5009822;28;20030;-55
2022/04/23 10:11:25;;;;;;;24.52;19.25;;;;;;;18.51;100.00;165409.88;5008880;28;20461;-55
2022/04/23 10:13:56;;;;;;;23.00;18.20;;;;;;;18.42;100.00;165385.44;5010057;28;20166;-54
2022/04/23 10:16:22;;;;;;;21.55;18.17;;;;;;;18.45;100.00;165392.22;5008630;28;20050;-53
2022/04/23 10:18:47;;;;;;;24.77;20.70;;;;;;;18.34;100.00;165365.13;5009943;28;20096;-54
2022/04/23 10:21:21;;;;;;;20.10;17.90;;;;;;;18.49;100.00;165403.09;5007879;28;20038;-54
2022/04/23 10:24:18;;;;;;;22.13;18.65;;;;;;;18.42;100.00;165385.44;5010392;28;20022;-54
2022/04/23 10:26:49;;;;;;;25.65;20.15;;;;;;;18.36;100.00;165369.19;4993805;28;20050;-55
2022/04/23 10:29:20;;;;;;;28.75;20.52;;;;;;;18.68;100.00;165454.59;5014493;28;20025;-54
2022/04/23 10:32:15;;;;;;;24.40;20.60;;;;;;;18.86;100.00;165502.06;5013033;28;20041;-55
2022/04/23 10:34:42;;;;;;;21.48;19.20;;;;;;;19.42;100.00;165647.25;4994213;28;20117;-55
2022/04/23 10:37:29;;;;;;;23.50;18.70;;;;;;;19.48;95.42;165663.53;4992366;28;20537;-55
2022/04/23 10:39:57;;;;;;;25.58;20.77;;;;;;;19.33;98.13;165625.56;4995075;28;20492;-55
2022/04/23 10:42:24;;;;;;;21.88;19.60;;;;;;;19.25;99.41;165603.84;4993043;28;20042;-55
2022/04/23 10:44:54;;;;;;;21.58;19.10;;;;;;;18.81;94.83;165487.13;5013899;28;20030;-53
2022/04/23 10:47:39;;;;;;;25.63;21.27;;;;;;;18.77;96.99;165477.66;5012516;28;20065;-55
2022/04/23 10:50:13;;;;;;;22.05;19.83;;;;;;;19.14;93.53;165574.03;5014341;28;20109;-54
2022/04/23 10:52:39;;;;;;;28.13;19.63;;;;;;;18.76;91.69;165474.97;5012661;28;20042;-54
2022/04/23 10:55:05;;;;;;;24.15;21.27;;;;;;;18.76;94.74;165473.59;5014684;28;20025;-54
2022/04/23 10:57:30;;;;;;;23.35;16.70;;;;;;;18.33;92.75;165361.03;5012277;28;20037;-54
2022/04/23 11:00:10;;;;;;;19.63;17.60;;;;;;;17.79;93.08;165218.63;5013133;28;20417;-54
2022/04/23 11:02:35;;;;;;;18.25;16.10;;;;;;;17.75;94.09;165209.16;5010568;28;20096;-55
2022/04/23 11:13:56;;;;;;;21.13;16.25;;;;;;;17.63;96.96;165177.97;4994480;28;20140;-54
2022/04/23 11:16:28;;;;;;;21.25;17.85;;;;;;;18.10;100.00;165300.03;4992592;28;20045;-55
2022/04/23 11:18:54;;;;;;;17.00;15.20;;;;;;;18.35;93.42;165367.84;4994336;28;20025;-55
2022/04/23 11:21:26;;;;;;;20.17;15.90;;;;;;;18.48;95.56;165400.38;4992614;28;20038;-55
2022/04/23 11:23:53;;;;;;;17.20;13.80;;;;;;;18.70;90.73;165460.03;5001513;28;20066;-55
2022/04/23 11:26:26;;;;;;;18.93;14.40;;;;;;;19.23;100.00;165598.44;5011832;28;20037;-55
2022/04/23 11:29:02;;;;;;;16.02;14.05;;;;;;;19.08;87.87;165557.75;5013756;28;20116;-54
2022/04/23 11:31:27;;;;;;;15.60;14.00;;;;;;;18.29;86.46;165350.19;5011744;28;20588;-55